Time;durP1;ratioP1;P1;durP2;ratioP2;P2;SDS_P1;SDS_P2;PMS_P1;PMS_P2;Temp;Humidity;BMP_temperature;BMP_pressure;BME280_temperature;BME280_humidity;BME280_pressure;Samples;Min_cycle;Max_cycle;Signal;HPM_P1;HPM_P2
2022/08/01 00:00:51;;;;;;;1.67;1.67;;;27.50;45.60;;;;;;5125993;28;20457;-80
2022/08/01 00:03:20;;;;;;;1.83;1.73;;;27.50;45.60;;;;;;5126788;28;20470;-80
2022/08/01 00:05:50;;;;;;;2.00;1.90;;;27.50;45.50;;;;;;5126990;28;20398;-80
2022/08/01 00:08:18;;;;;;;2.33;2.23;;;27.50;45.60;;;;;;5126397;28;20471;-80
2022/08/01 00:10:46;;;;;;;2.20;2.10;;;27.50;45.60;;;;;;5127213;28;20475;-80
2022/08/01 00:13:14;;;;;;;1.83;1.80;;;27.40;45.60;;;;;;5128397;28;20414;-81
2022/08/01 00:15:42;;;;;;;2.07;1.97;;;27.40;45.60;;;;;;5126432;28;20474;-80
2022/08/01 00:18:20;;;;;;;1.90;1.80;;;27.40;45.60;;;;;;5121722;28;20474;-82
2022/08/01 00:20:49;;;;;;;1.83;1.73;;;27.40;45.60;;;;;;5128400;28;20437;-80
2022/08/01 00:23:17;;;;;;;2.07;1.93;;;27.40;45.60;;;;;;5129451;28;20445;-79
2022/08/01 00:25:45;;;;;;;2.03;1.93;;;27.40;45.60;;;;;;5120436;28;20455;-79
2022/08/01 00:28:13;;;;;;;2.10;2.00;;;27.40;45.60;;;;;;5124304;28;20440;-81
2022/08/01 00:30:41;;;;;;;2.07;1.97;;;27.40;45.60;;;;;;5120358;28;20428;-79
2022/08/01 00:33:09;;;;;;;2.00;1.90;;;27.40;45.70;;;;;;5121366;28;20517;-79
2022/08/01 00:35:37;;;;;;;2.07;1.97;;;27.40;45.60;;;;;;5120582;28;20446;-79
2022/08/01 00:38:06;;;;;;;1.80;1.80;;;27.40;45.60;;;;;;5121049;28;20494;-78
2022/08/01 00:40:34;;;;;;;1.90;1.80;;;27.40;45.60;;;;;;5121287;28;20438;-80
2022/08/01 00:43:02;;;;;;;1.67;1.67;;;27.40;45.60;;;;;;5120543;28;20406;-80
2022/08/01 00:45:30;;;;;;;1.80;1.80;;;27.40;45.60;;;;;;5119979;28;20498;-80
2022/08/01 00:47:58;;;;;;;2.13;2.03;;;27.40;45.60;;;;;;5121551;28;20502;-80
2022/08/01 00:50:26;;;;;;;2.00;1.90;;;27.40;45.80;;;;;;5119757;28;20441;-79
2022/08/01 00:52:54;;;;;;;1.90;1.83;;;27.30;45.70;;;;;;5119944;28;20467;-79
2022/08/01 00:55:23;;;;;;;1.73;1.73;;;27.30;45.70;;;;;;5118450;28;20492;-79
2022/08/01 00:57:51;;;;;;;2.30;2.20;;;27.30;45.70;;;;;;5119244;28;21041;-79
2022/08/01 01:00:33;;;;;;;1.80;1.80;;;27.30;45.80;;;;;;5119107;28;20471;-79
2022/08/01 01:03:20;;;;;;;1.87;1.87;;;27.30;45.70;;;;;;5118822;28;20443;-78
2022/08/01 01:06:06;;;;;;;1.90;1.80;;;27.30;45.80;;;;;;5118046;28;20471;-79
2022/08/01 01:08:42;;;;;;;1.97;1.90;;;27.30;45.80;;;;;;5118863;28;20505;-79
2022/08/01 01:11:14;;;;;;;2.03;1.93;;;27.30;45.70;;;;;;5117110;28;20435;-80
2022/08/01 01:13:44;;;;;;;2.40;2.30;;;27.30;45.80;;;;;;5118442;28;20546;-79
2022/08/01 01:16:18;;;;;;;1.80;1.80;;;27.30;45.80;;;;;;5117185;28;20441;-80
2022/08/01 01:18:47;;;;;;;1.80;1.70;;;27.30;45.80;;;;;;5118301;28;20983;-79
2022/08/01 01:21:29;;;;;;;2.17;2.07;;;27.30;45.80;;;;;;5118360;28;20450;-81
2022/08/01 01:24:01;;;;;;;1.83;1.73;;;27.30;45.80;;;;;;5118655;27;20542;-81
2022/08/01 01:26:33;;;;;;;1.63;1.63;;;27.20;45.70;;;;;;5118140;28;20479;-81
2022/08/01 01:29:05;;;;;;;1.80;1.80;;;27.20;45.70;;;;;;5118662;28;21059;-80
2022/08/01 01:31:36;;;;;;;1.87;1.77;;;27.20;45.80;;;;;;5118728;28;20454;-80
2022/08/01 01:34:04;;;;;;;1.70;1.60;;;27.20;45.90;;;;;;5118087;28;20461;-81
2022/08/01 01:36:32;;;;;;;1.77;1.77;;;27.20;45.80;;;;;;5117652;28;20418;-81
2022/08/01 01:39:00;;;;;;;1.70;1.70;;;27.20;45.90;;;;;;5118573;27;20421;-81
2022/08/01 01:41:28;;;;;;;2.00;1.90;;;27.20;45.80;;;;;;5118857;28;20425;-81
2022/08/01 01:43:56;;;;;;;1.70;1.70;;;27.20;45.90;;;;;;5118732;28;20429;-81
2022/08/01 01:46:26;;;;;;;2.13;2.03;;;27.20;45.90;;;;;;5117659;28;20425;-81
2022/08/01 01:48:54;;;;;;;1.80;1.80;;;27.20;45.80;;;;;;5118467;28;20909;-80
2022/08/01 01:51:23;;;;;;;1.60;1.60;;;27.20;45.90;;;;;;5118944;28;20417;-81
2022/08/01 01:53:51;;;;;;;1.80;1.80;;;27.20;45.90;;;;;;5118210;28;20458;-81
2022/08/01 01:56:19;;;;;;;1.60;1.60;;;27.20;45.80;;;;;;5116478;28;20439;-80
2022/08/01 01:58:47;;;;;;;2.10;2.00;;;27.10;45.90;;;;;;5118294;28;20450;-80
2022/08/01 02:01:15;;;;;;;2.10;2.00;;;27.10;45.90;;;;;;5118038;27;20558;-80
2022/08/01 02:04:04;;;;;;;1.70;1.70;;;27.20;46.00;;;;;;5118273;28;20451;-80
2022/08/01 02:06:32;;;;;;;1.57;1.57;;;27.10;45.90;;;;;;5116993;28;20975;-80
2022/08/01 02:09:00;;;;;;;1.73;1.73;;;27.10;45.90;;;;;;5117769;28;20521;-81
2022/08/01 02:11:28;;;;;;;2.00;1.90;;;27.10;45.90;;;;;;5118390;28;20468;-81
2022/08/01 02:13:58;;;;;;;1.80;1.80;;;27.10;46.40;;;;;;5118431;28;20448;-80
2022/08/01 02:16:27;;;;;;;2.00;1.90;;;27.10;45.90;;;;;;5117786;28;20842;-81
2022/08/01 02:18:55;;;;;;;1.73;1.63;;;27.10;45.90;;;;;;5117932;28;20481;-81
2022/08/01 02:21:28;;;;;;;1.77;1.70;;;27.10;46.00;;;;;;5116582;28;20534;-81
2022/08/01 02:23:56;;;;;;;1.57;1.57;;;27.10;45.90;;;;;;5118349;28;20560;-80
2022/08/01 02:26:24;;;;;;;1.70;1.70;;;27.10;45.90;;;;;;5117537;28;20440;-79
2022/08/01 02:28:53;;;;;;;1.60;1.60;;;27.10;46.00;;;;;;5117853;28;20434;-79
2022/08/01 02:31:22;;;;;;;1.87;1.77;;;27.10;46.00;;;;;;5118151;28;20530;-80
2022/08/01 02:33:54;;;;;;;1.70;1.70;;;27.10;46.00;;;;;;5117713;28;20456;-80
2022/08/01 02:36:22;;;;;;;1.60;1.60;;;27.10;45.90;;;;;;5116753;28;20470;-79
2022/08/01 02:39:02;;;;;;;1.60;1.60;;;27.10;45.90;;;;;;5118184;28;20426;-79
2022/08/01 02:41:30;;;;;;;2.00;1.90;;;27.10;45.90;;;;;;5117936;28;20453;-80
2022/08/01 02:43:59;;;;;;;1.80;1.70;;;27.10;46.00;;;;;;5118052;28;20448;-80
2022/08/01 02:46:31;;;;;;;1.50;1.50;;;27.00;45.80;;;;;;5116457;28;20440;-80
2022/08/01 02:49:00;;;;;;;1.60;1.60;;;27.00;45.90;;;;;;5117856;28;20440;-80
2022/08/01 02:51:28;;;;;;;2.20;2.10;;;27.00;45.90;;;;;;5117269;28;20497;-80
2022/08/01 02:53:56;;;;;;;2.17;2.07;;;27.00;46.00;;;;;;5116979;28;20551;-80
2022/08/01 02:56:34;;;;;;;1.50;1.50;;;27.00;45.90;;;;;;5117265;28;20444;-80
2022/08/01 02:59:04;;;;;;;1.73;1.70;;;27.00;46.00;;;;;;5120187;28;20435;-79
2022/08/01 03:01:33;;;;;;;1.80;1.80;;;27.00;46.10;;;;;;5127699;28;20498;-79
2022/08/01 03:04:03;;;;;;;1.70;1.60;;;27.00;46.10;;;;;;5130823;28;20470;-79
2022/08/01 03:06:32;;;;;;;1.30;1.30;;;26.90;46.10;;;;;;5126463;28;20430;-80
2022/08/01 03:09:00;;;;;;;1.73;1.73;;;26.90;46.10;;;;;;5116817;28;20791;-80
2022/08/01 03:11:29;;;;;;;1.30;1.30;;;27.00;46.20;;;;;;5115526;28;20410;-79
2022/08/01 03:13:57;;;;;;;1.40;1.40;;;26.90;46.00;;;;;;5117441;28;20474;-79
2022/08/01 03:16:26;;;;;;;1.73;1.73;;;27.00;46.10;;;;;;5114717;28;20486;-80
2022/08/01 03:18:54;;;;;;;1.73;1.63;;;26.90;46.10;;;;;;5116121;28;20428;-81
2022/08/01 03:21:22;;;;;;;1.67;1.67;;;26.90;46.20;;;;;;5117203;28;20478;-79
2022/08/01 03:23:50;;;;;;;1.70;1.70;;;26.90;46.10;;;;;;5117020;28;20466;-79
2022/08/01 03:26:21;;;;;;;1.70;1.60;;;26.90;46.10;;;;;;5115818;28;20436;-80
2022/08/01 03:28:50;;;;;;;1.37;1.37;;;26.90;46.20;;;;;;5115589;28;20415;-80
2022/08/01 03:31:18;;;;;;;1.47;1.37;;;26.90;46.20;;;;;;5117370;28;20430;-79
2022/08/01 03:33:46;;;;;;;1.33;1.33;;;26.90;46.20;;;;;;5119596;28;20546;-80
2022/08/01 03:36:14;;;;;;;1.43;1.43;;;26.90;46.20;;;;;;5120684;28;20412;-79
2022/08/01 03:38:41;;;;;;;1.70;1.70;;;26.90;46.30;;;;;;5120116;28;20410;-79
2022/08/01 03:41:10;;;;;;;1.70;1.70;;;26.90;46.30;;;;;;5119450;28;20452;-80
2022/08/01 03:43:41;;;;;;;1.67;1.67;;;26.90;46.20;;;;;;5120282;28;20426;-79
2022/08/01 03:46:11;;;;;;;1.40;1.40;;;26.90;46.20;;;;;;5119008;28;20505;-79
2022/08/01 03:48:41;;;;;;;1.47;1.47;;;26.90;46.30;;;;;;5119519;28;20525;-80
2022/08/01 03:51:09;;;;;;;1.63;1.63;;;26.80;46.20;;;;;;5121002;27;20517;-79
2022/08/01 03:53:37;;;;;;;1.53;1.53;;;26.80;46.30;;;;;;5121574;28;20501;-79
2022/08/01 03:56:09;;;;;;;1.47;1.37;;;26.80;46.20;;;;;;5119948;28;20411;-79
2022/08/01 03:58:37;;;;;;;1.43;1.43;;;26.90;46.20;;;;;;5120314;28;20414;-80
2022/08/01 04:01:04;;;;;;;1.70;1.70;;;26.90;46.20;;;;;;5119937;27;20477;-79
2022/08/01 04:03:34;;;;;;;1.60;1.50;;;26.80;46.20;;;;;;5120063;28;20431;-79
2022/08/01 04:06:10;;;;;;;1.40;1.40;;;26.80;46.20;;;;;;5120048;28;20417;-79
2022/08/01 04:08:38;;;;;;;1.30;1.30;;;26.80;46.20;;;;;;5120863;28;20535;-79
2022/08/01 04:11:07;;;;;;;1.80;1.70;;;26.80;46.30;;;;;;5120377;28;20438;-79
2022/08/01 04:13:35;;;;;;;2.40;1.73;;;26.80;46.20;;;;;;5120722;28;20439;-79
2022/08/01 04:16:05;;;;;;;1.60;1.50;;;26.80;46.30;;;;;;5119369;28;20426;-79
2022/08/01 04:18:35;;;;;;;1.47;1.47;;;26.80;46.30;;;;;;5120413;28;20531;-79
2022/08/01 04:21:03;;;;;;;1.77;1.50;;;26.80;46.20;;;;;;5120255;28;20446;-79
2022/08/01 04:23:31;;;;;;;1.50;1.50;;;26.80;46.20;;;;;;5119753;28;20440;-79
2022/08/01 04:25:59;;;;;;;1.43;1.43;;;26.80;46.30;;;;;;5119500;28;20514;-80
2022/08/01 04:28:27;;;;;;;1.47;1.47;;;26.80;46.30;;;;;;5116553;27;20422;-78
2022/08/01 04:30:55;;;;;;;1.80;1.73;;;26.80;46.30;;;;;;5117049;28;20505;-78
2022/08/01 04:33:28;;;;;;;1.60;1.50;;;26.80;46.30;;;;;;5116729;28;20418;-79
2022/08/01 04:35:58;;;;;;;1.20;1.20;;;26.70;46.40;;;;;;5118313;28;20483;-79
2022/08/01 04:38:32;;;;;;;1.33;1.33;;;26.80;46.40;;;;;;5119696;28;20439;-79
2022/08/01 04:41:01;;;;;;;1.40;1.40;;;26.80;46.30;;;;;;5119039;28;20467;-78
2022/08/01 04:43:36;;;;;;;1.67;1.57;;;26.80;46.40;;;;;;5118894;28;20438;-79
2022/08/01 04:46:04;;;;;;;1.20;1.20;;;26.80;46.40;;;;;;5118089;28;20470;-79
2022/08/01 04:48:33;;;;;;;1.47;1.47;;;26.80;46.30;;;;;;5119185;28;20475;-79
2022/08/01 04:51:02;;;;;;;1.20;1.20;;;26.70;46.30;;;;;;5118932;28;20523;-79
2022/08/01 04:53:32;;;;;;;1.30;1.30;;;26.70;46.30;;;;;;5119481;28;20535;-79
2022/08/01 04:56:00;;;;;;;1.70;1.60;;;26.70;46.20;;;;;;5118650;28;20440;-80
2022/08/01 04:58:28;;;;;;;1.57;1.47;;;26.70;46.20;;;;;;5119533;28;20475;-79
2022/08/01 05:00:56;;;;;;;1.60;1.53;;;26.70;46.40;;;;;;5119697;28;20448;-79
2022/08/01 05:03:24;;;;;;;1.73;1.30;;;26.70;46.30;;;;;;5120089;28;20415;-80
2022/08/01 05:05:52;;;;;;;1.50;1.43;;;26.70;46.40;;;;;;5118764;28;20482;-79
2022/08/01 05:08:21;;;;;;;1.60;1.60;;;26.80;46.40;;;;;;5119508;28;20515;-79
2022/08/01 05:10:49;;;;;;;1.30;1.30;;;26.70;46.30;;;;;;5118894;28;20414;-79
2022/08/01 05:13:16;;;;;;;1.30;1.30;;;26.70;46.30;;;;;;5118706;28;20438;-78
2022/08/01 05:15:44;;;;;;;1.20;1.20;;;26.70;46.50;;;;;;5118979;28;20494;-78
2022/08/01 05:18:12;;;;;;;1.40;1.40;;;26.80;46.40;;;;;;5119821;27;20413;-78
2022/08/01 05:20:41;;;;;;;1.23;1.20;;;26.80;46.40;;;;;;5118677;28;20985;-78
2022/08/01 05:23:09;;;;;;;1.30;1.30;;;26.80;46.30;;;;;;5118112;28;20449;-80
2022/08/01 05:25:54;;;;;;;2.53;1.60;;;26.80;46.40;;;;;;5117116;28;20418;-79
2022/08/01 05:28:25;;;;;;;1.50;1.50;;;26.80;46.30;;;;;;5117165;28;20522;-80
2022/08/01 05:30:54;;;;;;;1.77;1.70;;;26.80;46.40;;;;;;5118379;28;20507;-79
2022/08/01 05:33:22;;;;;;;1.40;1.40;;;26.80;46.30;;;;;;5118596;28;20432;-80
2022/08/01 05:35:51;;;;;;;1.40;1.40;;;26.80;46.40;;;;;;5116630;28;20478;-80
2022/08/01 05:38:19;;;;;;;1.67;1.57;;;26.80;46.50;;;;;;5117588;28;20519;-80
2022/08/01 05:40:47;;;;;;;1.30;1.30;;;26.80;46.50;;;;;;5118242;28;20425;-80
2022/08/01 05:43:16;;;;;;;1.60;1.50;;;26.80;46.50;;;;;;5118044;28;20473;-79
2022/08/01 05:45:45;;;;;;;1.27;1.27;;;26.80;46.60;;;;;;5117884;28;20515;-79
2022/08/01 05:48:13;;;;;;;1.33;1.33;;;26.80;46.60;;;;;;5118261;28;20458;-80
2022/08/01 05:50:42;;;;;;;1.20;1.20;;;26.80;46.50;;;;;;5116286;28;20447;-79
2022/08/01 05:53:10;;;;;;;1.30;1.30;;;26.80;46.60;;;;;;5115348;28;20443;-77
2022/08/01 05:55:37;;;;;;;1.30;1.30;;;26.80;46.60;;;;;;5114401;28;20429;-79
2022/08/01 05:58:05;;;;;;;1.37;1.37;;;26.80;46.60;;;;;;5116966;27;20485;-80
2022/08/01 06:00:35;;;;;;;1.30;1.30;;;26.80;46.50;;;;;;5117960;28;20454;-80
2022/08/01 06:03:03;;;;;;;1.40;1.20;;;26.80;46.50;;;;;;5117318;28;20446;-79
2022/08/01 06:05:31;;;;;;;1.20;1.20;;;26.80;46.50;;;;;;5116946;28;20467;-79
2022/08/01 06:07:59;;;;;;;1.50;1.40;;;26.80;46.50;;;;;;5117824;28;20433;-79
2022/08/01 06:10:27;;;;;;;1.13;1.13;;;26.80;46.40;;;;;;5118135;28;20455;-80
2022/08/01 06:12:55;;;;;;;1.30;1.30;;;26.90;46.60;;;;;;5117876;28;20447;-80
2022/08/01 06:15:23;;;;;;;1.20;1.20;;;26.90;46.50;;;;;;5117147;28;20438;-80
2022/08/01 06:17:52;;;;;;;1.50;1.50;;;26.90;46.40;;;;;;5118050;28;20515;-79
2022/08/01 06:20:20;;;;;;;1.60;1.50;;;26.90;46.40;;;;;;5120886;28;20440;-82
2022/08/01 06:22:48;;;;;;;1.37;1.27;;;26.90;46.50;;;;;;5117815;28;20468;-79
2022/08/01 06:25:19;;;;;;;1.27;1.27;;;26.90;46.20;;;;;;5118309;28;20438;-80
2022/08/01 06:27:49;;;;;;;1.50;1.40;;;27.00;46.30;;;;;;5115812;28;20439;-79
2022/08/01 06:30:17;;;;;;;1.33;1.33;;;27.00;46.30;;;;;;5116809;28;20501;-79
2022/08/01 06:32:45;;;;;;;1.30;1.30;;;27.10;46.20;;;;;;5118391;28;20498;-79
2022/08/01 06:35:14;;;;;;;1.40;1.30;;;27.10;46.00;;;;;;5116889;28;20438;-79
2022/08/01 06:37:42;;;;;;;1.40;1.30;;;27.20;46.10;;;;;;5116841;28;20439;-80
2022/08/01 06:40:11;;;;;;;1.10;1.10;;;27.20;46.00;;;;;;5117682;28;20530;-79
2022/08/01 06:42:45;;;;;;;1.27;1.27;;;27.20;46.00;;;;;;5117363;27;20460;-79
2022/08/01 06:45:13;;;;;;;1.20;1.20;;;27.20;46.00;;;;;;5116134;28;20434;-79
2022/08/01 06:47:41;;;;;;;1.20;1.10;;;27.20;46.00;;;;;;5117470;28;20937;-79
2022/08/01 06:50:10;;;;;;;1.30;1.30;;;27.20;45.90;;;;;;5117408;28;21042;-78
2022/08/01 06:52:39;;;;;;;1.27;1.20;;;27.30;46.00;;;;;;5117179;28;20407;-78
2022/08/01 06:55:08;;;;;;;1.30;1.30;;;27.20;46.00;;;;;;5115478;28;20499;-79
2022/08/01 06:57:36;;;;;;;2.13;1.40;;;27.20;46.00;;;;;;5114963;28;20423;-80
2022/08/01 07:00:05;;;;;;;1.27;1.27;;;27.30;45.90;;;;;;5115623;28;20416;-79
2022/08/01 07:02:33;;;;;;;1.23;1.13;;;27.30;46.10;;;;;;5116391;28;20499;-80
2022/08/01 07:05:01;;;;;;;1.40;1.30;;;27.40;46.00;;;;;;5115143;28;20562;-79
2022/08/01 07:07:30;;;;;;;1.20;1.20;;;27.30;45.80;;;;;;5116032;28;20456;-80
2022/08/01 07:10:00;;;;;;;1.40;1.30;;;27.40;46.00;;;;;;5115499;28;20451;-78
2022/08/01 07:12:27;;;;;;;1.30;1.20;;;27.40;45.80;;;;;;5115992;28;20481;-80
2022/08/01 07:14:55;;;;;;;1.50;1.40;;;27.40;45.90;;;;;;5115248;28;20436;-77
2022/08/01 07:17:23;;;;;;;1.67;1.57;;;27.50;45.80;;;;;;5116913;28;20515;-79
2022/08/01 07:19:50;;;;;;;1.23;1.20;;;27.50;45.80;;;;;;5116931;28;20432;-80
2022/08/01 07:22:19;;;;;;;1.40;1.30;;;27.60;46.50;;;;;;5117954;28;20442;-79
2022/08/01 07:24:50;;;;;;;1.17;1.17;;;27.80;45.90;;;;;;5117075;28;20487;-79
2022/08/01 07:27:22;;;;;;;1.60;1.50;;;27.90;45.60;;;;;;5116207;28;20835;-79
2022/08/01 07:29:52;;;;;;;1.67;1.57;;;27.90;45.60;;;;;;5117616;28;20395;-80
2022/08/01 07:32:20;;;;;;;3.27;1.10;;;28.00;45.60;;;;;;5117358;28;20518;-80
2022/08/01 07:34:48;;;;;;;1.37;1.30;;;28.10;45.30;;;;;;5119256;28;20902;-78
2022/08/01 07:37:16;;;;;;;1.10;1.10;;;28.10;45.30;;;;;;5117471;28;20510;-79
2022/08/01 07:39:43;;;;;;;1.50;1.07;;;28.20;45.30;;;;;;5117136;28;20501;-80
2022/08/01 07:42:11;;;;;;;1.47;1.37;;;28.30;45.20;;;;;;5117032;28;20493;-80
2022/08/01 07:44:43;;;;;;;1.50;1.50;;;28.30;45.30;;;;;;5116641;28;20471;-79
2022/08/01 07:47:11;;;;;;;1.40;1.30;;;28.40;45.10;;;;;;5116518;28;20482;-80
2022/08/01 07:49:39;;;;;;;1.57;1.47;;;28.50;45.20;;;;;;5116790;28;20457;-80
2022/08/01 07:52:08;;;;;;;1.30;1.23;;;28.60;45.00;;;;;;5116221;28;20507;-80
2022/08/01 07:54:36;;;;;;;1.40;1.23;;;28.70;44.70;;;;;;5116899;28;20480;-80
2022/08/01 07:57:04;;;;;;;1.50;1.40;;;28.70;44.70;;;;;;5115783;28;20509;-80
2022/08/01 07:59:32;;;;;;;2.10;1.20;;;28.80;44.60;;;;;;5116796;28;20934;-80
2022/08/01 08:02:01;;;;;;;2.60;1.63;;;28.80;44.60;;;;;;5116944;28;20873;-80
2022/08/01 08:04:30;;;;;;;1.40;1.30;;;28.80;44.60;;;;;;5118540;28;20453;-80
2022/08/01 08:06:58;;;;;;;1.30;1.10;;;28.90;44.60;;;;;;5118665;28;20443;-80
2022/08/01 08:09:26;;;;;;;1.20;1.20;;;29.00;44.60;;;;;;5123448;28;20455;-80
2022/08/01 08:11:54;;;;;;;1.60;1.50;;;29.10;44.40;;;;;;5118245;28;20443;-80
2022/08/01 08:14:23;;;;;;;1.67;1.57;;;29.10;44.30;;;;;;5117145;28;20543;-80
2022/08/01 08:17:01;;;;;;;1.50;1.40;;;29.20;44.30;;;;;;5116953;28;20454;-80
2022/08/01 08:19:32;;;;;;;1.40;1.30;;;29.30;44.50;;;;;;5117696;28;20436;-80
2022/08/01 08:22:05;;;;;;;1.73;1.63;;;29.40;44.50;;;;;;5121577;28;20418;-80
2022/08/01 08:24:34;;;;;;;1.70;1.30;;;29.50;44.20;;;;;;5120841;28;20482;-81
2022/08/01 08:27:02;;;;;;;1.50;1.40;;;29.60;44.00;;;;;;5120011;28;20862;-80
2022/08/01 08:29:32;;;;;;;1.53;1.43;;;29.60;43.90;;;;;;5120003;28;20451;-80
2022/08/01 08:32:01;;;;;;;1.43;1.30;;;29.70;44.10;;;;;;5121263;28;20469;-80
2022/08/01 08:34:29;;;;;;;1.47;1.37;;;29.70;43.90;;;;;;5119601;28;20978;-80
2022/08/01 08:36:58;;;;;;;1.60;1.50;;;29.90;44.10;;;;;;5119622;28;20444;-80
2022/08/01 08:39:29;;;;;;;1.60;1.50;;;30.00;44.00;;;;;;5120338;28;20932;-79
2022/08/01 08:41:58;;;;;;;1.50;1.40;;;30.30;43.70;;;;;;5120151;28;20444;-80
2022/08/01 08:44:25;;;;;;;1.33;1.23;;;30.50;43.40;;;;;;5119841;28;20546;-80
2022/08/01 08:46:55;;;;;;;1.77;1.47;;;30.70;43.20;;;;;;5119763;28;20443;-80
2022/08/01 08:49:26;;;;;;;1.67;1.40;;;30.80;42.80;;;;;;5119925;28;20526;-79
2022/08/01 08:52:03;;;;;;;1.43;1.33;;;31.00;42.80;;;;;;5120684;28;20435;-80
2022/08/01 08:54:32;;;;;;;1.53;1.20;;;31.10;42.40;;;;;;5119633;28;20452;-80
2022/08/01 08:57:01;;;;;;;1.73;1.50;;;31.20;42.40;;;;;;5119228;28;20444;-80
2022/08/01 08:59:29;;;;;;;2.00;1.33;;;31.20;42.30;;;;;;5121593;28;20512;-80
2022/08/01 09:01:58;;;;;;;1.30;1.30;;;31.30;42.30;;;;;;5120256;28;20440;-80
2022/08/01 09:04:27;;;;;;;1.50;1.40;;;31.40;42.20;;;;;;5120104;28;20479;-80
2022/08/01 09:06:55;;;;;;;1.47;1.47;;;31.50;42.10;;;;;;5119411;28;20444;-80
2022/08/01 09:09:23;;;;;;;1.87;1.50;;;31.50;41.80;;;;;;5119664;27;20542;-80
2022/08/01 09:11:52;;;;;;;1.93;1.50;;;31.60;41.80;;;;;;5119897;28;20531;-80
2022/08/01 09:14:26;;;;;;;1.50;1.40;;;31.60;41.80;;;;;;5119342;28;21001;-80
2022/08/01 09:17:01;;;;;;;1.47;1.33;;;31.60;41.80;;;;;;5118927;28;20444;-80
2022/08/01 09:19:36;;;;;;;1.47;1.20;;;31.60;41.80;;;;;;5119131;27;20889;-80
2022/08/01 09:22:09;;;;;;;1.40;1.30;;;31.70;41.70;;;;;;5119780;28;20451;-79
2022/08/01 09:24:37;;;;;;;1.40;1.30;;;31.90;41.70;;;;;;5119065;28;20501;-80
2022/08/01 09:27:17;;;;;;;1.60;1.50;;;31.90;41.50;;;;;;5118588;28;20474;-79
2022/08/01 09:29:49;;;;;;;1.50;1.40;;;32.10;42.00;;;;;;5119162;28;20447;-79
2022/08/01 09:32:29;;;;;;;2.60;1.50;;;32.10;41.20;;;;;;5124345;28;20439;-79
2022/08/01 09:35:24;;;;;;;1.37;1.27;;;32.20;41.10;;;;;;5119263;28;20474;-79
2022/08/01 09:38:15;;;;;;;1.03;1.03;;;32.30;40.90;;;;;;5119918;27;20440;-79
2022/08/01 09:40:47;;;;;;;1.30;1.20;;;32.40;40.80;;;;;;5118024;28;20469;-79
2022/08/01 09:43:16;;;;;;;1.40;1.30;;;32.40;40.60;;;;;;5117999;28;20451;-79
2022/08/01 09:45:44;;;;;;;1.20;1.20;;;32.40;40.70;;;;;;5117508;28;20467;-79
2022/08/01 09:48:17;;;;;;;1.40;1.30;;;32.40;40.60;;;;;;5118737;28;20456;-79
2022/08/01 09:50:48;;;;;;;1.37;1.27;;;32.50;40.60;;;;;;5118483;28;20535;-80
2022/08/01 09:53:16;;;;;;;1.30;1.20;;;32.50;41.10;;;;;;5118600;28;20440;-80
2022/08/01 09:56:09;;;;;;;1.90;1.20;;;32.60;40.40;;;;;;5118450;28;20470;-80
2022/08/01 09:59:00;;;;;;;1.33;1.23;;;32.60;40.30;;;;;;5118443;28;20443;-80
2022/08/01 10:01:29;;;;;;;1.17;1.07;;;32.70;40.30;;;;;;5114843;28;20444;-80
2022/08/01 10:04:09;;;;;;;1.30;1.20;;;32.80;40.10;;;;;;5119107;28;20475;-81
2022/08/01 10:06:42;;;;;;;1.30;1.20;;;32.80;40.00;;;;;;5117720;28;20431;-80
2022/08/01 10:09:10;;;;;;;1.33;1.23;;;33.00;40.10;;;;;;5118630;28;20451;-80
2022/08/01 10:11:38;;;;;;;1.30;1.20;;;33.10;40.00;;;;;;5118419;28;20542;-80
2022/08/01 10:14:07;;;;;;;1.50;1.17;;;33.30;40.00;;;;;;5118979;28;20459;-80
2022/08/01 10:16:36;;;;;;;1.27;1.20;;;33.50;39.80;;;;;;5117771;28;20452;-80
2022/08/01 10:19:07;;;;;;;1.10;1.10;;;33.80;39.50;;;;;;5117748;28;20448;-80
2022/08/01 10:21:46;;;;;;;1.73;1.47;;;33.90;39.20;;;;;;5117552;28;20435;-80
2022/08/01 10:24:25;;;;;;;2.93;1.67;;;34.10;39.20;;;;;;5117888;28;20468;-80
2022/08/01 10:26:56;;;;;;;1.50;1.40;;;34.20;39.00;;;;;;5120532;28;20471;-80
2022/08/01 10:29:24;;;;;;;1.20;1.10;;;34.40;39.00;;;;;;5117698;28;20519;-79
2022/08/01 10:32:12;;;;;;;1.30;1.20;;;34.50;38.70;;;;;;5118772;28;20435;-80
2022/08/01 10:34:40;;;;;;;1.60;1.47;;;34.60;38.60;;;;;;5118333;28;20456;-81
2022/08/01 10:37:13;;;;;;;1.10;1.00;;;34.80;38.50;;;;;;5117224;28;20424;-80
2022/08/01 10:39:42;;;;;;;1.00;1.00;;;34.90;38.40;;;;;;5118079;28;20455;-80
2022/08/01 10:42:10;;;;;;;1.17;1.10;;;35.10;38.10;;;;;;5116964;28;20458;-80
2022/08/01 10:44:46;;;;;;;1.40;1.20;;;35.40;38.00;;;;;;5117000;27;20475;-80
2022/08/01 10:47:16;;;;;;;1.37;0.97;;;35.60;37.90;;;;;;5116915;28;20443;-80
2022/08/01 10:49:52;;;;;;;1.00;1.00;;;35.70;37.60;;;;;;5118301;28;20475;-80
2022/08/01 10:52:21;;;;;;;1.07;0.97;;;35.80;37.30;;;;;;5117334;28;20487;-80
2022/08/01 10:54:50;;;;;;;1.37;1.20;;;35.80;37.30;;;;;;5117359;28;20531;-80
2022/08/01 10:57:19;;;;;;;1.10;1.10;;;35.90;37.40;;;;;;5116315;28;20466;-80
2022/08/01 10:59:50;;;;;;;1.03;1.03;;;36.10;37.20;;;;;;5117399;28;20440;-80
2022/08/01 11:02:29;;;;;;;1.30;1.20;;;36.10;37.00;;;;;;5117377;28;20448;-80
2022/08/01 11:05:01;;;;;;;1.40;1.30;;;36.10;36.80;;;;;;5117367;28;20569;-78
2022/08/01 11:07:45;;;;;;;1.17;1.07;;;36.20;37.00;;;;;;5117198;28;20475;-80
2022/08/01 11:10:20;;;;;;;1.00;1.00;;;36.20;36.70;;;;;;5118005;28;20539;-80
2022/08/01 11:12:52;;;;;;;1.23;1.10;;;36.30;36.70;;;;;;5116955;28;20442;-80
2022/08/01 11:15:30;;;;;;;0.90;0.90;;;36.40;36.40;;;;;;5116458;28;20524;-81
2022/08/01 11:18:00;;;;;;;2.27;1.03;;;36.30;36.60;;;;;;5116401;28;20447;-81
2022/08/01 11:20:30;;;;;;;1.20;1.20;;;36.40;36.60;;;;;;5116951;28;20448;-81
2022/08/01 11:23:27;;;;;;;1.73;1.10;;;36.60;36.60;;;;;;5117026;28;20478;-80
2022/08/01 11:26:17;;;;;;;1.00;1.00;;;36.70;36.40;;;;;;5116489;28;20471;-81
2022/08/01 11:29:15;;;;;;;1.10;1.00;;;36.60;36.30;;;;;;5118947;28;20452;-81
2022/08/01 11:31:49;;;;;;;1.03;1.03;;;37.30;36.30;;;;;;5116767;28;20912;-81
2022/08/01 11:34:17;;;;;;;1.23;1.13;;;38.00;35.10;;;;;;5116791;28;20527;-80
2022/08/01 11:36:45;;;;;;;1.20;1.10;;;38.40;35.20;;;;;;5117105;28;20471;-81
2022/08/01 11:39:31;;;;;;;0.90;0.90;;;39.20;34.10;;;;;;5116697;28;20440;-80
2022/08/01 11:42:19;;;;;;;0.90;0.90;;;39.80;31.40;;;;;;5116811;28;20938;-80
2022/08/01 11:44:51;;;;;;;1.20;1.10;;;39.00;32.10;;;;;;5117341;28;20535;-79
2022/08/01 11:47:19;;;;;;;1.23;1.13;;;38.40;32.90;;;;;;5116197;28;20532;-80
2022/08/01 11:49:50;;;;;;;0.93;0.93;;;37.90;33.50;;;;;;5117106;28;20477;-80
2022/08/01 11:52:19;;;;;;;1.30;1.20;;;38.20;35.10;;;;;;5119753;28;20440;-80
2022/08/01 11:54:51;;;;;;;1.00;1.00;;;39.50;32.60;;;;;;5121802;28;21056;-79
2022/08/01 11:57:20;;;;;;;1.10;1.00;;;40.00;31.60;;;;;;5121748;28;20891;-80
2022/08/01 11:59:51;;;;;;;1.33;1.13;;;41.50;31.00;;;;;;5122581;28;20447;-80
2022/08/01 12:02:31;;;;;;;0.90;0.90;;;42.50;29.60;;;;;;5122141;28;20447;-80
2022/08/01 12:05:00;;;;;;;0.90;0.90;;;42.80;28.10;;;;;;5120208;28;21061;-80
2022/08/01 12:07:30;;;;;;;0.80;0.70;;;42.40;28.80;;;;;;5120996;28;20443;-81
2022/08/01 12:10:01;;;;;;;0.90;0.90;;;43.30;28.50;;;;;;5121198;28;20538;-81
2022/08/01 12:12:29;;;;;;;1.03;0.93;;;44.00;27.90;;;;;;5121247;28;20522;-81
2022/08/01 12:14:59;;;;;;;0.80;0.80;;;44.00;27.30;;;;;;5120821;28;20493;-80
2022/08/01 12:17:30;;;;;;;0.80;0.80;;;44.00;26.90;;;;;;5121140;28;20813;-80
2022/08/01 12:19:58;;;;;;;0.80;0.80;;;43.60;28.10;;;;;;5120670;28;20431;-81
2022/08/01 12:22:26;;;;;;;0.73;0.73;;;43.20;27.60;;;;;;5120124;28;20817;-81
2022/08/01 12:24:54;;;;;;;0.80;0.80;;;43.30;28.30;;;;;;5121458;28;20459;-81
2022/08/01 12:27:27;;;;;;;0.80;0.80;;;44.10;27.50;;;;;;5120678;28;20441;-81
2022/08/01 12:29:55;;;;;;;0.90;0.90;;;44.20;27.30;;;;;;5121768;28;20422;-81
2022/08/01 12:32:27;;;;;;;0.80;0.80;;;44.20;26.60;;;;;;5120706;28;20496;-81
2022/08/01 12:35:03;;;;;;;0.80;0.80;;;43.00;27.60;;;;;;5119819;28;20463;-80
2022/08/01 12:37:32;;;;;;;0.90;0.90;;;42.30;28.30;;;;;;5120063;28;20445;-81
2022/08/01 12:39:59;;;;;;;1.00;1.00;;;41.50;29.30;;;;;;5120384;28;20446;-81
2022/08/01 12:42:29;;;;;;;1.00;1.00;;;41.40;29.50;;;;;;5119694;28;20537;-81
2022/08/01 12:44:57;;;;;;;0.80;0.80;;;41.90;29.20;;;;;;5119766;28;20543;-80
2022/08/01 12:47:25;;;;;;;0.70;0.70;;;42.80;28.60;;;;;;5127166;28;20451;-80
2022/08/01 12:49:53;;;;;;;0.90;0.90;;;43.50;27.90;;;;;;5120741;28;20443;-80
2022/08/01 12:52:22;;;;;;;0.90;0.90;;;42.60;27.80;;;;;;5120607;28;20443;-80
2022/08/01 12:55:08;;;;;;;1.20;1.00;;;41.60;28.70;;;;;;5119542;28;20970;-80
2022/08/01 12:57:39;;;;;;;1.00;0.80;;;40.70;29.80;;;;;;5119233;27;20485;-80
2022/08/01 13:00:09;;;;;;;0.90;0.90;;;40.90;30.30;;;;;;5119348;28;20454;-81
2022/08/01 13:02:38;;;;;;;0.77;0.77;;;41.80;29.40;;;;;;5120711;28;20447;-80
2022/08/01 13:05:07;;;;;;;0.80;0.80;;;42.50;28.70;;;;;;5118241;28;20469;-81